createdAt,value
2018-09-14T00:01:13.460Z,99723.14
2018-09-14T00:03:41.993Z,99722.55
2018-09-14T00:06:10.540Z,99707.88
2018-09-14T00:08:39.090Z,99714.36
2018-09-14T00:11:07.637Z,99711.61
2018-09-14T00:13:36.184Z,99716.17
2018-09-14T00:16:04.729Z,99721.73
2018-09-14T00:18:33.268Z,99716.58
2018-09-14T00:21:01.784Z,99725.59
2018-09-14T00:23:30.354Z,99723.06
2018-09-14T00:25:58.876Z,99724.86
2018-09-14T00:28:27.425Z,99723.31
2018-09-14T00:30:55.951Z,99715.95
2018-09-14T00:33:24.501Z,99719.33
2018-09-14T00:35:53.033Z,99715.59
2018-09-14T00:38:21.577Z,99716.20
2018-09-14T00:40:50.395Z,99712.11
2018-09-14T00:43:18.916Z,99718.23
2018-09-14T00:45:47.460Z,99715.59
2018-09-14T00:48:15.977Z,99715.11
2018-09-14T00:50:44.540Z,99724.52
2018-09-14T00:53:13.107Z,99719.45
2018-09-14T00:55:41.658Z,99718.95
2018-09-14T00:58:10.172Z,99718.26
2018-09-14T01:00:38.722Z,99720.03
2018-09-14T01:03:07.241Z,99715.97
2018-09-14T01:05:35.818Z,99720.17
2018-09-14T01:08:04.352Z,99716.81
2018-09-14T01:10:32.901Z,99722.84
2018-09-14T01:13:01.420Z,99719.94
2018-09-14T01:15:29.977Z,99718.97
2018-09-14T01:17:58.772Z,99721.48
2018-09-14T01:20:27.320Z,99721.97
2018-09-14T01:22:55.844Z,99717.64
2018-09-14T01:25:24.689Z,99719.58
2018-09-14T01:27:53.209Z,99716.31
2018-09-14T01:30:21.756Z,99717.39
2018-09-14T01:32:50.276Z,99711.73
2018-09-14T01:35:24.061Z,99709.69
2018-09-14T01:37:52.571Z,99713.20
2018-09-14T01:40:21.117Z,99715.00
2018-09-14T01:42:49.629Z,99705.70
2018-09-14T01:45:18.185Z,99714.27
2018-09-14T01:47:46.709Z,99708.50
2018-09-14T01:50:15.253Z,99704.88
2018-09-14T01:52:43.760Z,99705.70
2018-09-14T01:55:12.313Z,99704.66
2018-09-14T01:57:40.900Z,99705.12
2018-09-14T02:00:09.500Z,99701.73
2018-09-14T02:02:38.004Z,99705.84
2018-09-14T02:05:06.641Z,99700.55
2018-09-14T02:07:35.172Z,99708.73
2018-09-14T02:10:03.765Z,99704.88
2018-09-14T02:12:32.388Z,99709.20
2018-09-14T02:15:00.954Z,99704.05
2018-09-14T02:17:29.492Z,99699.94
2018-09-14T02:19:58.065Z,99702.09
2018-09-14T02:22:26.602Z,99699.20
2018-09-14T02:24:55.156Z,99698.84
2018-09-14T02:27:23.696Z,99694.03
2018-09-14T02:29:52.268Z,99692.73
2018-09-14T02:32:20.800Z,99698.97
2018-09-14T02:34:49.372Z,99693.31
2018-09-14T02:37:17.952Z,99687.54
2018-09-14T02:39:46.479Z,99688.51
2018-09-14T02:42:15.037Z,99689.34
2018-09-14T02:44:43.562Z,99686.83
2018-09-14T02:47:12.126Z,99685.27
2018-09-14T02:49:40.660Z,99688.25
2018-09-14T02:52:09.224Z,99686.47
2018-09-14T02:54:37.821Z,99682.49
2018-09-14T02:57:06.389Z,99683.69
2018-09-14T02:59:34.919Z,99685.37
2018-09-14T03:02:03.517Z,99681.63
2018-09-14T03:04:32.124Z,99684.17
2018-09-14T03:07:00.674Z,99686.11
2018-09-14T03:09:29.213Z,99676.33
2018-09-14T03:11:58.177Z,99679.22
2018-09-14T03:14:26.736Z,99680.19
2018-09-14T03:16:55.301Z,99678.05
2018-09-14T03:19:23.820Z,99679.59
2018-09-14T03:21:52.404Z,99670.93
2018-09-14T03:24:21.171Z,99673.23
2018-09-14T03:26:49.732Z,99669.96
2018-09-14T03:29:18.510Z,99671.90
2018-09-14T03:31:47.068Z,99672.12
2018-09-14T03:34:15.576Z,99662.51
2018-09-14T03:36:44.120Z,99664.06
2018-09-14T03:39:12.667Z,99661.66
2018-09-14T03:41:41.212Z,99665.52
2018-09-14T03:44:09.779Z,99662.39
2018-09-14T03:46:38.321Z,99670.45
2018-09-14T03:49:06.835Z,99670.55
2018-09-14T03:51:35.383Z,99673.17
2018-09-14T03:54:03.902Z,99678.09
2018-09-14T03:56:32.449Z,99667.88
2018-09-14T03:59:00.973Z,99668.71
2018-09-14T04:01:29.536Z,99677.03
2018-09-14T04:03:58.064Z,99676.52
2018-09-14T04:06:26.636Z,99674.47
2018-09-14T04:08:55.152Z,99676.77
2018-09-14T04:11:23.764Z,99670.17
2018-09-14T04:13:52.283Z,99669.20
2018-09-14T04:16:24.843Z,99670.88
2018-09-14T04:18:58.880Z,99645.20
2018-09-14T04:21:29.069Z,99676.06
2018-09-14T04:23:57.813Z,99668.72
2018-09-14T04:26:27.512Z,99673.53
2018-09-14T04:28:56.513Z,99673.53
2018-09-14T04:31:25.090Z,99673.66
2018-09-14T04:33:53.761Z,99677.98
2018-09-14T04:36:22.380Z,99683.88
2018-09-14T04:38:51.007Z,99683.50
2018-09-14T04:41:20.365Z,99691.19
2018-09-14T04:43:49.826Z,99688.68
2018-09-14T04:46:18.794Z,99691.56
2018-09-14T04:48:47.338Z,99694.59
2018-09-14T04:51:15.895Z,99693.23
2018-09-14T04:53:44.432Z,99690.70
2018-09-14T04:56:12.953Z,99693.11
2018-09-14T04:58:41.501Z,99689.64
2018-09-14T05:01:10.021Z,99692.89
2018-09-14T05:03:39.045Z,99693.72
2018-09-14T05:06:07.608Z,99701.91
2018-09-14T05:08:36.251Z,99699.03
2018-09-14T05:11:04.841Z,99707.20
2018-09-14T05:13:33.405Z,99700.45
2018-09-14T05:16:04.143Z,99701.17
2018-09-14T05:18:41.306Z,99705.94
2018-09-14T05:21:10.153Z,99706.54
2018-09-14T05:23:39.634Z,99710.92
2018-09-14T05:26:08.776Z,99710.28
2018-09-14T05:28:37.336Z,99707.18
2018-09-14T05:31:06.434Z,99710.05
2018-09-14T05:33:35.383Z,99710.20
2018-09-14T05:36:03.936Z,99717.92
2018-09-14T05:38:32.532Z,99721.16
2018-09-14T05:41:01.062Z,99723.66
2018-09-14T05:43:29.804Z,99728.47
2018-09-14T05:45:58.333Z,99725.94
2018-09-14T05:48:27.088Z,99726.42
2018-09-14T05:50:55.736Z,99729.56
2018-09-14T05:53:24.299Z,99727.52
2018-09-14T05:55:54.304Z,99726.80
2018-09-14T05:58:22.865Z,99735.16
2018-09-14T06:00:51.493Z,99732.96
2018-09-14T06:03:20.109Z,99734.43
2018-09-14T06:05:48.700Z,99735.49
2018-09-14T06:08:17.273Z,99732.67
2018-09-14T06:10:45.809Z,99738.45
2018-09-14T06:13:14.411Z,99732.31
2018-09-14T06:15:42.946Z,99735.80
2018-09-14T06:18:11.512Z,99730.51
2018-09-14T06:20:40.036Z,99732.30
2018-09-14T06:23:08.666Z,99734.48
2018-09-14T06:25:37.165Z,99730.64
2018-09-14T06:28:05.873Z,99731.72
2018-09-14T06:30:39.021Z,99738.11
2018-09-14T06:33:13.497Z,99730.51
2018-09-14T06:35:42.253Z,99732.44
2018-09-14T06:38:13.717Z,99731.02
2018-09-14T06:40:42.457Z,99727.75
2018-09-14T06:43:11.108Z,99735.94
2018-09-14T06:45:39.656Z,99730.88
2018-09-14T06:48:08.225Z,99734.98
2018-09-14T06:50:36.778Z,99728.48
2018-09-14T06:53:05.357Z,99732.68
2018-09-14T06:55:33.941Z,99731.98
2018-09-14T06:58:02.485Z,99735.21
2018-09-14T07:00:31.135Z,99731.97
2018-09-14T07:02:59.612Z,99735.59
2018-09-14T07:05:28.299Z,99723.30
2018-09-14T07:07:56.846Z,99729.45
2018-09-14T07:10:25.426Z,99727.02
2018-09-14T07:12:53.964Z,99734.14
2018-09-14T07:15:22.867Z,99737.85
2018-09-14T07:17:51.421Z,99743.83
2018-09-14T07:20:19.981Z,99741.06
2018-09-14T07:22:48.521Z,99741.87
2018-09-14T07:25:17.088Z,99746.22
2018-09-14T07:27:45.636Z,99747.15
2018-09-14T07:30:14.272Z,99752.42
2018-09-14T07:32:43.053Z,99755.98
2018-09-14T07:35:11.650Z,99756.66
2018-09-14T07:37:40.185Z,99762.94
2018-09-14T07:40:08.766Z,99766.63
2018-09-14T07:42:37.343Z,99772.36
2018-09-14T07:45:06.293Z,99783.75
2018-09-14T07:47:34.828Z,99787.49
2018-09-14T07:50:03.407Z,99784.53
2018-09-14T07:52:31.941Z,99787.34
2018-09-14T07:55:00.512Z,99792.77
2018-09-14T07:57:29.054Z,99789.30
2018-09-14T07:59:57.628Z,99791.49
2018-09-14T08:02:26.178Z,99792.77
2018-09-14T08:04:54.758Z,99789.82
2018-09-14T08:07:23.275Z,99795.03
2018-09-14T08:09:52.109Z,99802.75
2018-09-14T08:12:20.649Z,99796.36
2018-09-14T08:14:49.201Z,99798.95
2018-09-14T08:17:17.728Z,99796.66
2018-09-14T08:19:46.276Z,99799.09
2018-09-14T08:22:14.784Z,99795.23
2018-09-14T08:24:43.368Z,99794.50
2018-09-14T08:27:11.907Z,99796.80
2018-09-14T08:29:40.428Z,99795.47
2018-09-14T08:32:09.002Z,99795.80
2018-09-14T08:34:37.523Z,99792.52
2018-09-14T08:37:06.104Z,99793.81
2018-09-14T08:39:34.622Z,99789.28
2018-09-14T08:42:03.169Z,99796.87
2018-09-14T08:44:31.689Z,99794.08
2018-09-14T08:47:00.297Z,99800.66
2018-09-14T08:49:28.817Z,99803.41
2018-09-14T08:51:57.433Z,99798.39
2018-09-14T08:54:25.961Z,99795.87
2018-09-14T08:56:54.513Z,99805.91
2018-09-14T08:59:23.045Z,99800.72
2018-09-14T09:01:51.613Z,99811.96
2018-09-14T09:04:20.133Z,99811.68
2018-09-14T09:06:48.722Z,99818.30
2018-09-14T09:09:17.306Z,99821.47
2018-09-14T09:11:45.789Z,99827.23
2018-09-14T09:14:14.309Z,99820.00
2018-09-14T09:16:43.196Z,99819.20
2018-09-14T09:19:11.726Z,99814.73
2018-09-14T09:21:40.274Z,99812.38
2018-09-14T09:24:08.808Z,99810.25
2018-09-14T09:26:37.358Z,99809.70
2018-09-14T09:29:06.046Z,99803.20
2018-09-14T09:31:34.596Z,99802.38
2018-09-14T09:34:03.120Z,99806.69
2018-09-14T09:36:31.677Z,99806.95
2018-09-14T09:39:00.189Z,99806.62
2018-09-14T09:41:28.728Z,99804.73
2018-09-14T09:43:57.301Z,99804.34
2018-09-14T09:46:25.804Z,99802.25
2018-09-14T09:48:54.321Z,99804.77
2018-09-14T09:51:22.930Z,99805.13
2018-09-14T09:53:51.400Z,99805.45
2018-09-14T09:56:19.939Z,99800.79
2018-09-14T09:58:48.509Z,99813.72
2018-09-14T10:01:22.289Z,99809.75
2018-09-14T10:05:58.413Z,99808.02
2018-09-14T10:08:27.028Z,99803.88
2018-09-14T10:10:55.577Z,99798.21
2018-09-14T10:13:24.141Z,99797.96
2018-09-14T10:15:52.664Z,99792.19
2018-09-14T10:18:21.231Z,99794.35
2018-09-14T10:20:49.828Z,99794.50
2018-09-14T10:23:18.682Z,99785.56
2018-09-14T10:25:50.120Z,99784.91
2018-09-14T10:28:18.686Z,99796.80
2018-09-14T10:30:47.204Z,99785.82
2018-09-14T10:33:15.805Z,99781.70
2018-09-14T10:35:44.363Z,99780.73
2018-09-14T10:38:12.922Z,99777.56
2018-09-14T10:40:41.471Z,99773.52
2018-09-14T10:43:10.018Z,99771.47
2018-09-14T10:45:38.569Z,99765.59
2018-09-14T10:48:07.162Z,99766.16
2018-09-14T10:50:35.677Z,99765.16
2018-09-14T10:53:04.293Z,99769.16
2018-09-14T10:55:32.821Z,99771.00
2018-09-14T10:58:01.369Z,99767.54
2018-09-14T11:00:29.900Z,99764.83
2018-09-14T11:02:58.457Z,99765.91
2018-09-14T11:05:27.008Z,99762.20
2018-09-14T11:07:55.553Z,99761.02
2018-09-14T11:10:24.116Z,99758.09
2018-09-14T11:12:52.715Z,99765.94
2018-09-14T11:15:21.232Z,99772.50
2018-09-14T11:17:49.776Z,99762.08
2018-09-14T11:20:18.288Z,99755.17
2018-09-14T11:25:14.466Z,99750.21
2018-09-14T11:27:42.941Z,99755.49
2018-09-14T11:30:11.481Z,99751.50
2018-09-14T11:32:40.103Z,99744.49
2018-09-14T11:35:08.708Z,99744.44
2018-09-14T11:37:37.265Z,99742.53
2018-09-14T11:40:05.833Z,99736.19
2018-09-14T11:42:34.648Z,99738.98
2018-09-14T11:45:03.212Z,99736.20
2018-09-14T11:47:34.970Z,99733.61
2018-09-14T11:50:05.211Z,99731.34
2018-09-14T11:52:33.818Z,99732.22
2018-09-14T11:55:03.078Z,99735.20
2018-09-14T11:57:32.069Z,99735.57
2018-09-14T12:00:00.613Z,99741.30
2018-09-14T12:02:30.135Z,99735.97
2018-09-14T12:04:59.737Z,99729.27
2018-09-14T12:07:35.879Z,99726.27
2018-09-14T12:10:12.215Z,99731.33
2018-09-14T12:12:40.968Z,99722.62
2018-09-14T12:15:13.288Z,99720.92
2018-09-14T12:17:46.389Z,99722.28
2018-09-14T12:20:14.984Z,99712.56
2018-09-14T12:22:47.531Z,99710.49
2018-09-14T12:25:19.471Z,99701.15
2018-09-14T12:27:54.008Z,99706.80
2018-09-14T12:30:25.841Z,99700.01
2018-09-14T12:32:55.878Z,99694.72
2018-09-14T12:35:24.424Z,99699.25
2018-09-14T12:37:52.993Z,99707.06
2018-09-14T12:40:22.852Z,99705.81
2018-09-14T12:42:56.106Z,99697.75
2018-09-14T12:45:24.690Z,99698.22
2018-09-14T12:47:54.204Z,99696.73
2018-09-14T12:50:24.864Z,99695.38
2018-09-14T12:52:53.418Z,99691.78
2018-09-14T12:55:23.447Z,99689.66
2018-09-14T12:57:54.403Z,99690.48
2018-09-14T13:00:23.029Z,99691.47
2018-09-14T13:02:56.747Z,99693.73
2018-09-14T13:05:30.461Z,99684.99
2018-09-14T13:08:00.873Z,99693.52
2018-09-14T13:10:33.509Z,99683.93
2018-09-14T13:13:07.267Z,99687.75
2018-09-14T13:15:36.345Z,99685.42
2018-09-14T13:18:10.900Z,99676.84
2018-09-14T13:20:41.829Z,99695.97
2018-09-14T13:23:10.332Z,99685.12
2018-09-14T13:25:38.865Z,99682.24
2018-09-14T13:28:07.421Z,99692.73
2018-09-14T13:30:39.101Z,99687.27
2018-09-14T13:33:09.337Z,99688.42
2018-09-14T13:35:37.939Z,99676.78
2018-09-14T13:38:06.963Z,99682.75
2018-09-14T13:40:35.516Z,99675.14
2018-09-14T13:43:04.037Z,99671.02
2018-09-14T13:45:32.597Z,99673.48
2018-09-14T13:48:08.686Z,99672.52
2018-09-14T13:50:39.435Z,99675.19
2018-09-14T13:53:07.991Z,99667.94
2018-09-14T13:55:36.560Z,99663.86
2018-09-14T13:58:08.931Z,99670.92
2018-09-14T14:00:37.690Z,99666.37
2018-09-14T14:03:06.733Z,99663.66
2018-09-14T14:05:35.564Z,99669.66
2018-09-14T14:08:04.076Z,99658.54
2018-09-14T14:10:32.586Z,99651.06
2018-09-14T14:13:01.203Z,99665.23
2018-09-14T14:15:34.178Z,99669.52
2018-09-14T14:18:06.875Z,99672.71
2018-09-14T14:20:35.641Z,99666.08
2018-09-14T14:23:04.202Z,99663.72
2018-09-14T14:25:32.817Z,99657.30
2018-09-14T14:28:01.378Z,99658.63
2018-09-14T14:30:29.884Z,99653.65
2018-09-14T14:32:58.582Z,99654.04
2018-09-14T14:35:27.100Z,99669.62
2018-09-14T14:38:03.310Z,99659.22
2018-09-14T14:40:32.186Z,99670.51
2018-09-14T14:43:00.948Z,99663.68
2018-09-14T14:45:30.444Z,99656.13
2018-09-14T14:47:59.260Z,99659.61
2018-09-14T14:50:27.768Z,99658.44
2018-09-14T14:52:57.826Z,99661.40
2018-09-14T14:55:26.745Z,99658.95
2018-09-14T14:57:55.929Z,99653.30
2018-09-14T15:00:24.457Z,99656.55
2018-09-14T15:02:53.009Z,99647.59
2018-09-14T15:05:21.566Z,99650.05
2018-09-14T15:07:50.116Z,99658.53
2018-09-14T15:10:18.632Z,99657.66
2018-09-14T15:12:47.181Z,99655.24
2018-09-14T15:15:20.247Z,99656.18
2018-09-14T15:17:48.953Z,99654.18
2018-09-14T15:20:17.505Z,99651.23
2018-09-14T15:22:46.052Z,99653.59
2018-09-14T15:25:16.976Z,99652.23
2018-09-14T15:27:47.704Z,99658.26
2018-09-14T15:30:18.395Z,99660.36
2018-09-14T15:32:47.020Z,99665.30
2018-09-14T15:35:18.245Z,99666.20
2018-09-14T15:37:48.336Z,99659.19
2018-09-14T15:40:18.145Z,99667.38
2018-09-14T15:42:46.698Z,99663.48
2018-09-14T15:45:15.214Z,99662.30
2018-09-14T15:47:43.803Z,99670.52
2018-09-14T15:50:12.329Z,99664.98
2018-09-14T15:52:40.874Z,99669.80
2018-09-14T15:55:09.436Z,99669.34
2018-09-14T15:57:39.974Z,99672.73
2018-09-14T16:00:08.716Z,99665.41
2018-09-14T16:02:37.240Z,99658.98
2018-09-14T16:05:05.881Z,99665.03
2018-09-14T16:07:34.416Z,99672.63
2018-09-14T16:10:05.377Z,99668.19
2018-09-14T16:12:33.920Z,99668.19
2018-09-14T16:15:02.519Z,99671.14
2018-09-14T16:17:32.885Z,99670.69
2018-09-14T16:20:01.537Z,99675.45
2018-09-14T16:22:30.073Z,99669.73
2018-09-14T16:25:03.590Z,99668.83
2018-09-14T16:27:32.118Z,99670.17
2018-09-14T16:30:00.677Z,99680.90
2018-09-14T16:32:29.209Z,99675.86
2018-09-14T16:34:58.081Z,99673.05
2018-09-14T16:37:26.759Z,99678.61
2018-09-14T16:39:55.329Z,99676.89
2018-09-14T16:42:23.871Z,99681.13
2018-09-14T16:44:52.461Z,99682.13
2018-09-14T16:47:21.000Z,99679.48
2018-09-14T16:49:49.566Z,99678.00
2018-09-14T16:52:18.111Z,99680.70
2018-09-14T16:54:46.672Z,99685.10
2018-09-14T16:57:15.205Z,99680.75
2018-09-14T16:59:43.800Z,99679.09
2018-09-14T17:02:12.342Z,99683.84
2018-09-14T17:04:40.973Z,99682.11
2018-09-14T17:07:09.590Z,99679.55
2018-09-14T17:09:38.165Z,99690.06
2018-09-14T17:12:06.701Z,99687.61
2018-09-14T17:14:35.309Z,99687.90
2018-09-14T17:17:03.820Z,99688.66
2018-09-14T17:19:32.364Z,99688.97
2018-09-14T17:22:00.901Z,99693.11
2018-09-14T17:24:29.439Z,99693.03
2018-09-14T17:26:57.957Z,99682.88
2018-09-14T17:29:26.509Z,99687.52
2018-09-14T17:31:55.030Z,99692.70
2018-09-14T17:34:29.434Z,99692.91
2018-09-14T17:37:02.214Z,99694.40
2018-09-14T17:39:30.808Z,99697.01
2018-09-14T17:41:59.309Z,99696.32
2018-09-14T17:44:35.625Z,99699.77
2018-09-14T17:47:06.699Z,99701.42
2018-09-14T17:49:40.395Z,99701.73
2018-09-14T17:52:09.030Z,99708.72
2018-09-14T17:54:37.577Z,99717.28
2018-09-14T17:57:06.083Z,99717.20
2018-09-14T17:59:34.648Z,99714.42
2018-09-14T18:02:03.171Z,99709.72
2018-09-14T18:04:35.450Z,99712.89
2018-09-14T18:07:04.164Z,99715.95
2018-09-14T18:09:32.689Z,99705.28
2018-09-14T18:12:01.256Z,99709.14
2018-09-14T18:14:29.840Z,99714.86
2018-09-14T18:16:58.880Z,99720.44
2018-09-14T18:19:27.421Z,99723.59
2018-09-14T18:21:56.082Z,99731.90
2018-09-14T18:24:25.009Z,99732.03
2018-09-14T18:26:53.603Z,99731.45
2018-09-14T18:29:22.158Z,99732.54
2018-09-14T18:31:51.402Z,99729.52
2018-09-14T18:34:19.953Z,99740.64
2018-09-14T18:36:48.576Z,99740.77
2018-09-14T18:39:17.112Z,99733.98
2018-09-14T18:41:47.177Z,99742.32
2018-09-14T18:44:23.981Z,99749.66
2018-09-14T18:46:52.759Z,99752.23
2018-09-14T18:49:26.574Z,99755.78
2018-09-14T18:52:02.861Z,99763.77
2018-09-14T18:54:34.249Z,99761.99
2018-09-14T18:57:02.834Z,99763.38
2018-09-14T18:59:31.396Z,99755.94
2018-09-14T19:01:59.973Z,99764.91
2018-09-14T19:04:28.493Z,99771.20
2018-09-14T19:06:57.093Z,99768.69
2018-09-14T19:09:25.624Z,99773.86
2018-09-14T19:11:54.185Z,99769.20
2018-09-14T19:14:22.725Z,99769.55
2018-09-14T19:16:51.289Z,99768.83
2018-09-14T19:19:20.284Z,99775.50
2018-09-14T19:21:48.849Z,99774.05
2018-09-14T19:24:17.378Z,99777.67
2018-09-14T19:26:45.945Z,99777.67
2018-09-14T19:29:14.468Z,99782.80
2018-09-14T19:31:43.091Z,99776.89
2018-09-14T19:34:11.668Z,99787.09
2018-09-14T19:36:40.277Z,99776.39
2018-09-14T19:39:10.772Z,99781.80
2018-09-14T19:41:39.385Z,99777.77
2018-09-14T19:44:07.932Z,99774.23
2018-09-14T19:46:36.561Z,99775.47
2018-09-14T19:49:05.409Z,99784.12
2018-09-14T19:51:33.992Z,99786.58
2018-09-14T19:54:02.572Z,99781.36
2018-09-14T19:56:31.164Z,99784.80
2018-09-14T19:58:59.717Z,99787.27
2018-09-14T20:01:28.325Z,99785.67
2018-09-14T20:03:56.855Z,99787.67
2018-09-14T20:06:25.644Z,99790.42
2018-09-14T20:08:54.223Z,99801.23
2018-09-14T20:11:22.817Z,99803.01
2018-09-14T20:13:51.708Z,99802.26
2018-09-14T20:16:20.466Z,99806.27
2018-09-14T20:18:49.544Z,99808.08
2018-09-14T20:21:18.124Z,99809.99
2018-09-14T20:23:46.677Z,99810.98
2018-09-14T20:26:15.528Z,99814.90
2018-09-14T20:28:46.768Z,99802.30
2018-09-14T20:31:15.309Z,99817.84
2018-09-14T20:33:49.351Z,99812.95
2018-09-14T20:36:22.834Z,99811.30
2018-09-14T20:38:53.170Z,99817.35
2018-09-14T20:41:22.708Z,99808.16
2018-09-14T20:43:53.507Z,99808.07
2018-09-14T20:46:23.104Z,99815.80
2018-09-14T20:48:53.716Z,99819.59
2018-09-14T20:51:24.100Z,99824.80
2018-09-14T20:53:55.105Z,99829.77
2018-09-14T20:56:25.352Z,99824.66
2018-09-14T20:58:54.885Z,99818.99
2018-09-14T21:01:33.409Z,99826.33
2018-09-14T21:04:04.088Z,99831.27
2018-09-14T21:06:35.288Z,99831.47
2018-09-14T21:09:08.413Z,99822.44
2018-09-14T21:11:38.790Z,99818.87
2018-09-14T21:14:10.393Z,99816.96
2018-09-14T21:16:45.208Z,99821.91
2018-09-14T21:19:15.241Z,99819.14
2018-09-14T21:21:48.061Z,99826.17
2018-09-14T21:24:16.775Z,99833.44
2018-09-14T21:26:45.316Z,99839.70
2018-09-14T21:29:15.535Z,99846.92
2018-09-14T21:31:47.856Z,99843.75
2018-09-14T21:34:17.704Z,99849.02
2018-09-14T21:36:51.892Z,99844.88
2018-09-14T21:39:22.218Z,99843.17
2018-09-14T21:41:55.270Z,99847.77
2018-09-14T21:44:25.453Z,99848.66
2018-09-14T21:46:57.561Z,99850.19
2018-09-14T21:49:32.134Z,99850.34
2018-09-14T21:52:01.872Z,99853.55
2018-09-14T21:54:31.635Z,99857.98
2018-09-14T21:57:01.397Z,99861.83
2018-09-14T21:59:34.215Z,99865.50
2018-09-14T22:02:10.326Z,99872.57
2018-09-14T22:04:40.256Z,99869.36
2018-09-14T22:07:12.543Z,99881.01
2018-09-14T22:09:43.662Z,99881.56
2018-09-14T22:12:14.296Z,99883.77
2018-09-14T22:14:45.084Z,99883.74
2018-09-14T22:17:14.453Z,99888.38
2018-09-14T22:19:44.708Z,99884.63
2018-09-14T22:22:18.073Z,99881.70
2018-09-14T22:24:48.833Z,99886.98
2018-09-14T22:27:20.327Z,99886.24
2018-09-14T22:29:51.101Z,99881.42
2018-09-14T22:32:20.393Z,99881.14
2018-09-14T22:34:50.512Z,99879.34
2018-09-14T22:37:23.508Z,99883.39
2018-09-14T22:39:56.292Z,99887.05
2018-09-14T22:42:25.121Z,99885.48
2018-09-14T22:44:53.659Z,99889.89
2018-09-14T22:47:22.173Z,99889.95
2018-09-14T22:49:50.705Z,99891.94
2018-09-14T22:52:19.216Z,99897.20
2018-09-14T22:54:47.744Z,99882.84
2018-09-14T22:57:16.256Z,99893.41
2018-09-14T22:59:44.828Z,99898.94
2018-09-14T23:02:13.332Z,99895.47
2018-09-14T23:04:41.918Z,99905.08
2018-09-14T23:07:10.421Z,99899.77
2018-09-14T23:09:38.956Z,99898.19
2018-09-14T23:12:07.746Z,99896.41
2018-09-14T23:14:36.279Z,99906.17
2018-09-14T23:17:04.799Z,99910.05
2018-09-14T23:19:33.352Z,99912.00
2018-09-14T23:22:01.860Z,99915.81
2018-09-14T23:24:30.396Z,99915.52
2018-09-14T23:26:58.928Z,99916.33
2018-09-14T23:29:27.465Z,99916.36
2018-09-14T23:31:55.963Z,99913.08
2018-09-14T23:34:24.497Z,99911.48
2018-09-14T23:36:53.004Z,99919.32
2018-09-14T23:39:21.546Z,99911.48
2018-09-14T23:41:50.296Z,99922.36
2018-09-14T23:44:18.832Z,99914.48
2018-09-14T23:46:47.333Z,99919.41
2018-09-14T23:49:16.405Z,99930.34
2018-09-14T23:51:44.916Z,99929.00
2018-09-14T23:54:13.488Z,99929.95
2018-09-14T23:56:42.000Z,99931.56
2018-09-14T23:59:10.546Z,99934.36
